Time;durP1;ratioP1;P1;durP2;ratioP2;P2;SDS_P1;SDS_P2;PMS_P1;PMS_P2;Temp;Humidity;BMP_temperature;BMP_pressure;BME280_temperature;BME280_humidity;BME280_pressure;Samples;Min_cycle;Max_cycle;Signal;HPM_P1;HPM_P2
2022/12/03 00:01:15;;;;;;;32.78;14.57;;;;;;;;;;5114444;28;20015;-77
2022/12/03 00:03:42;;;;;;;33.15;15.57;;;;;;;;;;5096644;28;20415;-77
2022/12/03 00:06:08;;;;;;;38.28;15.55;;;;;;;;;;5114722;28;20032;-77
2022/12/03 00:08:34;;;;;;;37.75;16.55;;;;;;;;;;5096545;28;20028;-77
2022/12/03 00:11:00;;;;;;;32.75;14.98;;;;;;;;;;5114724;28;20035;-77
2022/12/03 00:13:26;;;;;;;38.42;16.75;;;;;;;;;;5096262;28;20028;-77
2022/12/03 00:15:52;;;;;;;33.72;15.45;;;;;;;;;;5114226;28;20063;-77
2022/12/03 00:18:18;;;;;;;39.90;16.63;;;;;;;;;;5096094;28;20035;-77
2022/12/03 00:20:44;;;;;;;36.20;15.35;;;;;;;;;;5095681;28;20031;-77
2022/12/03 00:23:10;;;;;;;30.92;14.77;;;;;;;;;;5114095;28;20028;-77
2022/12/03 00:25:36;;;;;;;38.42;16.02;;;;;;;;;;5095704;28;20031;-77
2022/12/03 00:28:02;;;;;;;37.03;16.25;;;;;;;;;;5108494;28;20032;-77
2022/12/03 00:30:28;;;;;;;33.72;15.30;;;;;;;;;;5105752;28;20023;-77
2022/12/03 00:32:54;;;;;;;39.25;16.40;;;;;;;;;;5113672;28;20473;-77
2022/12/03 00:35:20;;;;;;;36.72;16.27;;;;;;;;;;5095832;28;20420;-77
2022/12/03 00:37:47;;;;;;;35.33;15.73;;;;;;;;;;5095571;28;20020;-77
2022/12/03 00:40:13;;;;;;;41.80;17.10;;;;;;;;;;5090854;28;20043;-77
2022/12/03 00:42:39;;;;;;;36.10;16.98;;;;;;;;;;5101927;28;20490;-77
2022/12/03 00:45:05;;;;;;;39.45;16.60;;;;;;;;;;5076046;28;20089;-80
2022/12/03 00:47:31;;;;;;;38.03;15.77;;;;;;;;;;5094414;28;20450;-80
2022/12/03 00:49:57;;;;;;;37.80;16.08;;;;;;;;;;5094234;28;20035;-81
2022/12/03 00:52:23;;;;;;;37.00;16.77;;;;;;;;;;5076395;28;20032;-80
2022/12/03 00:54:49;;;;;;;40.15;15.27;;;;;;;;;;5094289;28;20032;-80
2022/12/03 00:57:15;;;;;;;40.03;16.23;;;;;;;;;;5076103;28;20538;-77
2022/12/03 00:59:41;;;;;;;40.10;17.48;;;;;;;;;;5111683;28;20039;-77
2022/12/03 01:02:08;;;;;;;36.13;15.40;;;;;;;;;;5113816;28;20080;-77
2022/12/03 01:04:34;;;;;;;37.90;16.58;;;;;;;;;;5113378;28;20094;-77
2022/12/03 01:07:00;;;;;;;39.75;16.80;;;;;;;;;;5113832;28;20389;-77
2022/12/03 01:09:26;;;;;;;38.00;16.63;;;;;;;;;;5113662;28;20028;-77
2022/12/03 01:11:52;;;;;;;36.42;16.35;;;;;;;;;;5095125;28;20712;-77
2022/12/03 01:14:19;;;;;;;41.78;16.85;;;;;;;;;;5095059;28;20170;-77
2022/12/03 01:16:46;;;;;;;38.22;16.55;;;;;;;;;;5113217;28;20048;-77
2022/12/03 01:19:15;;;;;;;37.80;15.43;;;;;;;;;;5113192;28;20384;-77
2022/12/03 01:21:42;;;;;;;41.95;17.38;;;;;;;;;;5094989;28;20027;-77
2022/12/03 01:24:09;;;;;;;39.13;17.27;;;;;;;;;;5093292;28;20028;-77
2022/12/03 01:26:35;;;;;;;40.55;16.48;;;;;;;;;;5074377;28;20465;-77
2022/12/03 01:29:01;;;;;;;41.00;16.20;;;;;;;;;;5108040;28;20043;-77
2022/12/03 01:34:11;;;;;;;40.38;17.42;;;;;;;;;;5102130;28;20092;-77
2022/12/03 01:36:38;;;;;;;41.78;16.75;;;;;;;;;;5094794;28;20039;-77
2022/12/03 01:39:04;;;;;;;40.40;16.35;;;;;;;;;;5112849;28;20015;-77
2022/12/03 01:41:31;;;;;;;36.08;15.63;;;;;;;;;;5104845;28;20389;-77
2022/12/03 01:43:57;;;;;;;36.53;15.68;;;;;;;;;;5074634;28;20043;-78
2022/12/03 01:46:26;;;;;;;42.95;17.30;;;;;;;;;;5083791;28;20046;-77
2022/12/03 01:48:54;;;;;;;41.05;17.75;;;;;;;;;;5112717;28;20034;-77
2022/12/03 01:51:20;;;;;;;39.47;16.98;;;;;;;;;;5112908;28;20020;-77
2022/12/03 01:53:46;;;;;;;36.65;17.13;;;;;;;;;;5094541;28;20031;-77
2022/12/03 01:56:13;;;;;;;41.30;17.33;;;;;;;;;;5077583;28;20485;-77
2022/12/03 01:58:39;;;;;;;44.90;18.08;;;;;;;;;;5112189;28;20023;-77
2022/12/03 02:01:13;;;;;;;41.03;17.55;;;;;;;;;;5093610;28;20052;-77
2022/12/03 02:03:40;;;;;;;39.92;17.75;;;;;;;;;;5112364;28;20016;-77
2022/12/03 02:06:10;;;;;;;44.33;18.13;;;;;;;;;;5112536;28;20038;-77
2022/12/03 02:08:39;;;;;;;46.90;17.75;;;;;;;;;;5093990;28;20068;-77
2022/12/03 02:11:08;;;;;;;46.05;17.88;;;;;;;;;;5112704;28;20031;-77
2022/12/03 02:13:34;;;;;;;46.50;18.58;;;;;;;;;;5093940;28;20430;-78
2022/12/03 02:16:01;;;;;;;43.53;17.33;;;;;;;;;;5112215;28;20035;-77
2022/12/03 02:18:27;;;;;;;43.05;17.85;;;;;;;;;;5093678;28;20077;-77
2022/12/03 02:20:59;;;;;;;42.70;17.92;;;;;;;;;;5093902;28;20034;-77
2022/12/03 02:23:29;;;;;;;40.67;17.50;;;;;;;;;;5093459;28;20434;-77
2022/12/03 02:25:55;;;;;;;42.88;18.38;;;;;;;;;;5111901;28;20031;-77
2022/12/03 02:28:21;;;;;;;40.38;17.05;;;;;;;;;;5091995;28;20095;-77
2022/12/03 02:30:48;;;;;;;42.05;17.70;;;;;;;;;;5094009;28;20024;-77
2022/12/03 02:33:14;;;;;;;47.83;19.23;;;;;;;;;;5110203;28;20157;-77
2022/12/03 02:35:40;;;;;;;43.65;18.27;;;;;;;;;;5105743;28;20089;-77
2022/12/03 02:38:09;;;;;;;43.97;17.92;;;;;;;;;;5112141;28;20530;-77
2022/12/03 02:40:35;;;;;;;42.92;18.55;;;;;;;;;;5104174;28;20152;-77
2022/12/03 02:43:02;;;;;;;41.72;17.55;;;;;;;;;;5088232;28;20031;-77
2022/12/03 02:45:30;;;;;;;45.22;18.50;;;;;;;;;;5109807;28;20036;-77
2022/12/03 02:48:22;;;;;;;40.53;17.95;;;;;;;;;;5073676;28;20032;-77
2022/12/03 02:50:51;;;;;;;51.28;18.42;;;;;;;;;;5089105;28;20101;-77
2022/12/03 02:53:20;;;;;;;42.83;18.02;;;;;;;;;;5091657;28;20049;-77
2022/12/03 02:55:46;;;;;;;44.47;18.80;;;;;;;;;;5091571;28;20495;-77
2022/12/03 02:58:13;;;;;;;39.95;17.77;;;;;;;;;;5079640;28;20050;-77
2022/12/03 03:00:39;;;;;;;44.50;19.38;;;;;;;;;;5093618;28;20065;-77
2022/12/03 03:03:07;;;;;;;43.05;17.42;;;;;;;;;;5111773;28;20055;-77
2022/12/03 03:05:35;;;;;;;42.75;18.65;;;;;;;;;;5111561;28;20026;-77
2022/12/03 03:08:01;;;;;;;46.00;18.42;;;;;;;;;;5111981;28;20431;-77
2022/12/03 03:10:28;;;;;;;46.47;18.42;;;;;;;;;;5093674;28;20024;-77
2022/12/03 03:12:55;;;;;;;46.97;18.42;;;;;;;;;;5113475;28;20089;-77
2022/12/03 03:15:22;;;;;;;41.92;18.38;;;;;;;;;;5097326;28;20050;-77
2022/12/03 03:17:48;;;;;;;48.85;19.13;;;;;;;;;;5115310;28;20051;-77
2022/12/03 03:20:14;;;;;;;46.97;19.23;;;;;;;;;;5080498;28;20442;-77
2022/12/03 03:22:41;;;;;;;43.25;19.00;;;;;;;;;;5115383;28;20031;-77
2022/12/03 03:25:13;;;;;;;47.97;19.35;;;;;;;;;;5097414;28;20484;-77
2022/12/03 03:27:40;;;;;;;46.38;19.20;;;;;;;;;;5113293;28;20088;-77
2022/12/03 03:30:06;;;;;;;47.65;19.48;;;;;;;;;;5087467;28;20040;-77
2022/12/03 03:32:33;;;;;;;42.30;17.90;;;;;;;;;;5094935;28;20570;-77
2022/12/03 03:34:59;;;;;;;42.80;18.38;;;;;;;;;;5102970;28;20072;-77
2022/12/03 03:37:25;;;;;;;39.85;17.15;;;;;;;;;;5095044;28;20385;-77
2022/12/03 03:39:51;;;;;;;44.30;17.95;;;;;;;;;;5080756;28;20397;-77
2022/12/03 03:42:17;;;;;;;45.28;18.65;;;;;;;;;;5104096;28;20378;-77
2022/12/03 03:44:43;;;;;;;41.95;18.13;;;;;;;;;;5115203;28;20381;-77
2022/12/03 03:47:09;;;;;;;40.20;17.65;;;;;;;;;;5114192;28;20016;-77
2022/12/03 03:49:36;;;;;;;39.13;17.25;;;;;;;;;;5115123;28;20031;-77
2022/12/03 03:52:03;;;;;;;39.13;17.65;;;;;;;;;;5096822;28;20024;-77
2022/12/03 03:54:29;;;;;;;41.38;17.30;;;;;;;;;;5096596;28;20063;-77
2022/12/03 03:56:56;;;;;;;39.38;17.10;;;;;;;;;;5114948;28;20481;-77
2022/12/03 03:59:22;;;;;;;46.53;18.55;;;;;;;;;;5097049;28;20035;-77
2022/12/03 04:01:48;;;;;;;42.75;18.00;;;;;;;;;;5115016;28;20031;-77
2022/12/03 04:04:18;;;;;;;46.83;19.65;;;;;;;;;;5114717;28;20427;-77
2022/12/03 04:06:44;;;;;;;46.03;19.15;;;;;;;;;;5096524;28;20024;-77
2022/12/03 04:09:10;;;;;;;45.63;18.13;;;;;;;;;;5097075;28;20019;-77
2022/12/03 04:14:21;;;;;;;38.13;16.73;;;;;;;;;;5114901;28;20119;-77
2022/12/03 04:16:47;;;;;;;34.67;15.88;;;;;;;;;;5096509;28;20051;-78
2022/12/03 04:19:13;;;;;;;40.72;16.33;;;;;;;;;;5080352;28;20031;-77
2022/12/03 04:24:23;;;;;;;40.67;15.85;;;;;;;;;;5079516;28;20035;-78
2022/12/03 04:29:34;;;;;;;40.58;17.00;;;;;;;;;;5095068;28;20550;-78
2022/12/03 04:37:29;;;;;;;34.65;15.23;;;;;;;;;;5094972;28;20162;-78
2022/12/03 04:39:55;;;;;;;37.65;16.50;;;;;;;;;;5079562;28;20024;-77
2022/12/03 04:42:21;;;;;;;32.10;15.40;;;;;;;;;;5094411;28;20190;-78
2022/12/03 04:44:47;;;;;;;36.60;15.85;;;;;;;;;;5093364;28;20519;-78
2022/12/03 04:47:14;;;;;;;32.97;14.90;;;;;;;;;;5094526;28;20466;-78
2022/12/03 04:49:42;;;;;;;34.60;15.90;;;;;;;;;;5094409;28;20020;-78
2022/12/03 04:52:09;;;;;;;35.70;14.77;;;;;;;;;;5094540;28;20055;-77
2022/12/03 04:54:35;;;;;;;33.63;15.38;;;;;;;;;;5094161;28;20028;-78
2022/12/03 04:57:01;;;;;;;38.53;16.48;;;;;;;;;;5094401;28;20045;-78
2022/12/03 04:59:28;;;;;;;29.73;15.10;;;;;;;;;;5076052;28;20107;-78
2022/12/03 05:01:54;;;;;;;36.42;16.27;;;;;;;;;;5094163;28;20031;-78
2022/12/03 05:04:20;;;;;;;32.85;15.32;;;;;;;;;;5096159;28;20035;-78
2022/12/03 05:06:46;;;;;;;34.65;15.07;;;;;;;;;;5114343;28;20466;-78
2022/12/03 05:09:12;;;;;;;34.67;14.93;;;;;;;;;;5096140;28;20557;-78
2022/12/03 05:11:39;;;;;;;37.92;16.92;;;;;;;;;;5114175;28;20174;-78
2022/12/03 05:14:05;;;;;;;36.03;16.60;;;;;;;;;;5095692;28;20035;-77
2022/12/03 05:16:31;;;;;;;34.25;14.18;;;;;;;;;;5095751;28;20446;-78
2022/12/03 05:18:57;;;;;;;34.72;17.17;;;;;;;;;;5113890;28;20022;-78
2022/12/03 05:21:23;;;;;;;37.30;15.75;;;;;;;;;;5095412;28;20024;-78
2022/12/03 05:23:50;;;;;;;35.90;15.70;;;;;;;;;;5113784;28;20051;-78
2022/12/03 05:26:16;;;;;;;36.50;16.73;;;;;;;;;;5114160;28;20030;-78
2022/12/03 05:28:42;;;;;;;35.20;15.90;;;;;;;;;;5098425;28;20370;-78
2022/12/03 05:31:08;;;;;;;34.63;16.55;;;;;;;;;;5075707;28;20025;-78
2022/12/03 05:33:34;;;;;;;35.13;16.25;;;;;;;;;;5093524;28;20028;-77
2022/12/03 05:36:00;;;;;;;34.97;15.90;;;;;;;;;;5074688;28;20123;-78
2022/12/03 05:38:26;;;;;;;33.75;15.95;;;;;;;;;;5075330;28;20024;-78
2022/12/03 05:40:52;;;;;;;37.75;16.25;;;;;;;;;;5075387;28;20035;-78
2022/12/03 05:43:18;;;;;;;32.13;15.48;;;;;;;;;;5109187;28;20025;-78
2022/12/03 05:45:45;;;;;;;33.78;15.90;;;;;;;;;;5093243;28;20047;-78
2022/12/03 05:48:13;;;;;;;34.95;16.02;;;;;;;;;;5109011;28;20055;-78
2022/12/03 05:50:40;;;;;;;32.92;15.35;;;;;;;;;;5093390;28;20020;-78
2022/12/03 05:53:06;;;;;;;37.55;15.65;;;;;;;;;;5092099;28;20027;-78
2022/12/03 05:55:32;;;;;;;32.83;15.80;;;;;;;;;;5093367;28;20465;-78
2022/12/03 05:57:58;;;;;;;38.05;15.80;;;;;;;;;;5095461;28;20556;-78
2022/12/03 06:00:27;;;;;;;30.98;15.50;;;;;;;;;;5095383;28;20024;-78
2022/12/03 06:02:53;;;;;;;33.47;15.73;;;;;;;;;;5113515;28;20461;-78
2022/12/03 06:05:19;;;;;;;33.60;16.13;;;;;;;;;;5113417;28;20027;-78
2022/12/03 06:07:46;;;;;;;34.60;15.85;;;;;;;;;;5113307;28;20053;-78
2022/12/03 06:10:13;;;;;;;34.47;15.57;;;;;;;;;;5113481;28;20019;-78
2022/12/03 06:12:39;;;;;;;32.35;15.23;;;;;;;;;;5113213;28;20042;-78
2022/12/03 06:15:06;;;;;;;33.28;15.18;;;;;;;;;;5113292;28;20110;-78
2022/12/03 06:17:32;;;;;;;34.25;15.82;;;;;;;;;;5113212;28;20481;-78
2022/12/03 06:19:58;;;;;;;32.22;15.38;;;;;;;;;;5094826;28;20150;-78
2022/12/03 06:22:24;;;;;;;33.38;14.95;;;;;;;;;;5106183;28;20470;-78
2022/12/03 06:24:50;;;;;;;31.88;14.55;;;;;;;;;;5074182;28;20504;-77
2022/12/03 06:27:16;;;;;;;33.38;15.43;;;;;;;;;;5094777;28;20054;-78
2022/12/03 06:29:42;;;;;;;33.42;14.77;;;;;;;;;;5077856;28;20031;-78
2022/12/03 06:32:09;;;;;;;33.78;14.30;;;;;;;;;;5095027;28;20122;-78
2022/12/03 06:34:35;;;;;;;34.40;15.18;;;;;;;;;;5113117;28;20059;-78
2022/12/03 06:37:01;;;;;;;35.45;16.02;;;;;;;;;;5113158;28;20031;-78
2022/12/03 06:39:27;;;;;;;38.75;15.60;;;;;;;;;;5094553;28;20023;-78
2022/12/03 06:41:53;;;;;;;32.22;13.95;;;;;;;;;;5113091;28;20020;-78
2022/12/03 06:44:19;;;;;;;29.58;14.10;;;;;;;;;;5112999;28;20513;-78
2022/12/03 06:46:45;;;;;;;34.58;14.52;;;;;;;;;;5099872;28;20089;-78
2022/12/03 06:49:11;;;;;;;34.05;14.68;;;;;;;;;;5096696;28;20055;-78
2022/12/03 06:51:37;;;;;;;32.42;14.70;;;;;;;;;;5078508;28;20032;-78
2022/12/03 06:54:04;;;;;;;32.95;15.43;;;;;;;;;;5096392;28;20063;-78
2022/12/03 06:56:30;;;;;;;32.92;15.55;;;;;;;;;;5096605;28;20023;-78
2022/12/03 06:58:56;;;;;;;35.50;15.88;;;;;;;;;;5078462;28;20046;-78
2022/12/03 07:01:22;;;;;;;34.05;15.80;;;;;;;;;;5078327;28;20052;-78
2022/12/03 07:03:48;;;;;;;38.00;15.35;;;;;;;;;;5096700;28;20506;-78
2022/12/03 07:06:14;;;;;;;33.22;15.68;;;;;;;;;;5096612;28;20103;-78
2022/12/03 07:08:41;;;;;;;38.15;16.50;;;;;;;;;;5096427;28;20533;-78
2022/12/03 07:11:29;;;;;;;32.95;15.00;;;;;;;;;;5096302;28;20032;-78
2022/12/03 07:13:56;;;;;;;38.88;15.18;;;;;;;;;;5077817;28;20085;-78
2022/12/03 07:16:22;;;;;;;35.65;15.02;;;;;;;;;;5096058;28;20044;-78
2022/12/03 07:18:48;;;;;;;35.75;14.55;;;;;;;;;;5096224;28;20024;-78
2022/12/03 07:21:14;;;;;;;38.03;17.33;;;;;;;;;;5093452;28;20027;-78
2022/12/03 07:23:40;;;;;;;39.90;16.75;;;;;;;;;;5116566;28;20020;-78
2022/12/03 07:26:06;;;;;;;36.22;15.68;;;;;;;;;;5098328;28;20488;-78
2022/12/03 07:28:33;;;;;;;34.38;15.40;;;;;;;;;;5097764;28;20077;-78
2022/12/03 07:30:59;;;;;;;36.42;16.85;;;;;;;;;;5098345;28;20024;-78
2022/12/03 07:33:26;;;;;;;41.50;16.38;;;;;;;;;;5116404;28;20408;-78
2022/12/03 07:35:52;;;;;;;39.33;17.35;;;;;;;;;;5116087;28;20026;-78
2022/12/03 07:38:18;;;;;;;39.03;16.27;;;;;;;;;;5116373;28;20528;-78
2022/12/03 07:40:44;;;;;;;38.03;16.17;;;;;;;;;;5097829;28;20393;-78
2022/12/03 07:43:10;;;;;;;41.33;16.13;;;;;;;;;;5116144;28;20455;-78
2022/12/03 07:45:36;;;;;;;48.63;17.83;;;;;;;;;;5098047;28;20466;-78
2022/12/03 07:48:02;;;;;;;36.00;15.50;;;;;;;;;;5097582;28;20028;-78
2022/12/03 07:50:28;;;;;;;40.60;16.55;;;;;;;;;;5097734;28;20032;-78
2022/12/03 07:52:55;;;;;;;42.75;16.80;;;;;;;;;;5116071;28;20023;-78
2022/12/03 07:55:23;;;;;;;41.53;17.42;;;;;;;;;;5115966;28;20031;-78
2022/12/03 07:57:49;;;;;;;38.38;16.23;;;;;;;;;;5099230;28;20024;-78
2022/12/03 08:00:15;;;;;;;36.97;15.55;;;;;;;;;;5076507;28;20158;-77
2022/12/03 08:02:41;;;;;;;43.00;17.88;;;;;;;;;;5081565;28;20474;-78
2022/12/03 08:05:08;;;;;;;42.47;17.58;;;;;;;;;;5110372;28;20028;-78
2022/12/03 08:07:34;;;;;;;45.65;17.98;;;;;;;;;;5094616;28;20085;-78
2022/12/03 08:10:00;;;;;;;45.80;18.77;;;;;;;;;;5059754;28;20466;-78
2022/12/03 08:12:38;;;;;;;45.13;18.65;;;;;;;;;;5092388;28;20035;-78
2022/12/03 08:15:25;;;;;;;47.10;19.15;;;;;;;;;;5092955;28;20569;-78
2022/12/03 08:17:55;;;;;;;49.17;19.20;;;;;;;;;;5110209;28;20122;-78
2022/12/03 08:20:23;;;;;;;55.22;19.63;;;;;;;;;;5115122;28;20030;-78
2022/12/03 08:22:50;;;;;;;50.00;19.45;;;;;;;;;;5114748;28;20185;-78
2022/12/03 08:25:26;;;;;;;45.65;19.65;;;;;;;;;;5095294;28;20235;-78
2022/12/03 08:27:55;;;;;;;47.42;19.13;;;;;;;;;;5108755;28;20098;-78
2022/12/03 08:30:21;;;;;;;50.10;19.75;;;;;;;;;;5112939;28;20020;-78
2022/12/03 08:32:48;;;;;;;56.78;20.52;;;;;;;;;;5096093;28;20100;-78
2022/12/03 08:35:21;;;;;;;55.40;20.98;;;;;;;;;;5108953;28;20350;-78
2022/12/03 08:37:48;;;;;;;50.25;20.63;;;;;;;;;;5114451;28;20019;-77
2022/12/03 08:40:34;;;;;;;56.80;20.88;;;;;;;;;;5114579;28;20011;-77
2022/12/03 08:43:00;;;;;;;55.88;21.50;;;;;;;;;;5114903;28;20407;-77
2022/12/03 08:45:38;;;;;;;58.45;22.35;;;;;;;;;;5096340;28;20066;-77
2022/12/03 08:48:21;;;;;;;60.00;20.92;;;;;;;;;;5096598;28;20051;-78
2022/12/03 08:50:47;;;;;;;56.42;20.42;;;;;;;;;;5114675;28;20019;-78
2022/12/03 08:53:13;;;;;;;51.10;20.70;;;;;;;;;;5096418;28;20431;-78
2022/12/03 08:56:06;;;;;;;58.17;20.77;;;;;;;;;;5114738;28;20457;-81
2022/12/03 08:58:32;;;;;;;;;;;;;;;;;;5060878;28;20157;-80
2022/12/03 09:01:10;;;;;;;54.90;20.27;;;;;;;;;;5083881;28;19903;-80
2022/12/03 09:03:37;;;;;;;58.83;19.85;;;;;;;;;;5114162;28;20429;-80
2022/12/03 09:06:03;;;;;;;56.78;20.10;;;;;;;;;;5096019;28;20024;-80
2022/12/03 09:08:29;;;;;;;57.95;21.58;;;;;;;;;;5114429;28;20020;-80
2022/12/03 09:10:55;;;;;;;56.90;21.45;;;;;;;;;;5109671;28;20360;-80
2022/12/03 09:13:22;;;;;;;63.80;22.50;;;;;;;;;;5077485;28;20485;-80
2022/12/03 09:15:48;;;;;;;64.07;22.63;;;;;;;;;;5095930;28;20077;-81
2022/12/03 09:18:14;;;;;;;63.28;22.05;;;;;;;;;;5113978;28;20070;-80
2022/12/03 09:20:40;;;;;;;68.53;23.42;;;;;;;;;;5113634;28;20107;-80
2022/12/03 09:23:06;;;;;;;67.72;23.40;;;;;;;;;;5114205;28;20024;-80
2022/12/03 09:25:32;;;;;;;61.78;20.77;;;;;;;;;;5114002;28;20069;-81
2022/12/03 09:27:58;;;;;;;64.18;20.13;;;;;;;;;;5114105;28;20026;-81
2022/12/03 09:30:24;;;;;;;66.43;20.85;;;;;;;;;;5079019;28;20513;-81
2022/12/03 09:32:50;;;;;;;60.45;21.23;;;;;;;;;;5079239;28;20496;-81
2022/12/03 09:35:17;;;;;;;70.57;22.20;;;;;;;;;;5113650;28;20026;-80
2022/12/03 09:37:43;;;;;;;62.00;21.23;;;;;;;;;;5095519;28;20019;-80
2022/12/03 09:40:09;;;;;;;69.03;21.15;;;;;;;;;;5095346;28;20019;-80
2022/12/03 09:42:36;;;;;;;66.05;20.27;;;;;;;;;;5095653;28;20077;-80
2022/12/03 09:45:02;;;;;;;64.93;20.42;;;;;;;;;;5095864;28;20393;-80
2022/12/03 09:47:29;;;;;;;68.30;21.58;;;;;;;;;;5095395;28;20034;-80
2022/12/03 09:49:56;;;;;;;67.70;21.42;;;;;;;;;;5095636;28;20024;-80
2022/12/03 09:52:27;;;;;;;63.05;21.42;;;;;;;;;;5113461;28;20023;-80
2022/12/03 09:54:53;;;;;;;60.75;19.77;;;;;;;;;;5095132;28;20047;-80
2022/12/03 09:57:19;;;;;;;71.75;21.55;;;;;;;;;;5101192;28;20095;-80
2022/12/03 09:59:45;;;;;;;65.82;21.30;;;;;;;;;;5082459;28;20031;-80
2022/12/03 10:02:21;;;;;;;66.68;22.50;;;;;;;;;;5093918;28;20016;-80
2022/12/03 10:04:48;;;;;;;67.07;21.88;;;;;;;;;;5095212;28;20034;-80
2022/12/03 10:07:14;;;;;;;68.45;21.85;;;;;;;;;;5113307;28;20042;-81
2022/12/03 10:09:40;;;;;;;68.63;21.45;;;;;;;;;;5113220;28;20107;-81
2022/12/03 10:12:10;;;;;;;70.22;22.83;;;;;;;;;;5113365;28;20140;-80
2022/12/03 10:14:36;;;;;;;74.55;22.02;;;;;;;;;;5113180;28;20408;-80
2022/12/03 10:17:03;;;;;;;71.95;22.98;;;;;;;;;;5094603;28;20054;-80
2022/12/03 10:19:30;;;;;;;77.47;22.08;;;;;;;;;;5113305;28;20466;-80
2022/12/03 10:21:57;;;;;;;69.18;22.98;;;;;;;;;;5112608;28;20015;-80
2022/12/03 10:24:25;;;;;;;71.13;23.45;;;;;;;;;;5126662;27;20031;-80
2022/12/03 10:26:52;;;;;;;59.30;20.90;;;;;;;;;;5112466;28;20019;-80
2022/12/03 10:29:35;;;;;;;65.90;22.45;;;;;;;;;;5109018;28;20102;-81
2022/12/03 10:32:03;;;;;;;64.15;22.55;;;;;;;;;;5112479;28;20522;-80
2022/12/03 10:34:40;;;;;;;69.70;22.77;;;;;;;;;;5093320;28;20069;-80
2022/12/03 10:37:12;;;;;;;69.00;22.67;;;;;;;;;;5094800;28;20012;-81
2022/12/03 10:39:58;;;;;;;73.88;22.05;;;;;;;;;;5112701;28;20051;-80
2022/12/03 10:42:25;;;;;;;66.63;22.40;;;;;;;;;;5112161;28;20054;-80
2022/12/03 10:45:10;;;;;;;66.75;23.40;;;;;;;;;;5111475;28;20042;-80
2022/12/03 10:47:37;;;;;;;58.65;21.05;;;;;;;;;;5093805;28;20484;-78
2022/12/03 10:50:04;;;;;;;62.03;22.27;;;;;;;;;;5112605;28;20031;-80
2022/12/03 10:52:30;;;;;;;66.03;22.23;;;;;;;;;;5112725;28;20024;-80
2022/12/03 10:54:57;;;;;;;64.85;22.63;;;;;;;;;;5094361;28;20047;-80
2022/12/03 10:57:23;;;;;;;60.00;21.00;;;;;;;;;;5080611;28;20074;-80
2022/12/03 10:59:49;;;;;;;56.72;20.70;;;;;;;;;;5073651;28;20024;-79
2022/12/03 11:02:23;;;;;;;51.53;19.83;;;;;;;;;;5078640;28;20028;-80
2022/12/03 11:04:50;;;;;;;55.13;20.52;;;;;;;;;;5110804;28;20058;-79
2022/12/03 11:07:17;;;;;;;52.45;20.13;;;;;;;;;;5100682;28;20541;-80
2022/12/03 11:09:44;;;;;;;56.33;20.42;;;;;;;;;;5110644;28;20072;-80
2022/12/03 11:12:23;;;;;;;58.40;20.00;;;;;;;;;;5111638;28;20477;-80
2022/12/03 11:17:34;;;;;;;52.38;18.17;;;;;;;;;;5111783;28;20074;-78
2022/12/03 11:20:00;;;;;;;43.97;18.23;;;;;;;;;;5087543;28;20046;-77
2022/12/03 11:22:38;;;;;;;53.38;17.92;;;;;;;;;;5099363;28;20030;-76
2022/12/03 11:25:35;;;;;;;46.67;17.83;;;;;;;;;;5111868;28;20016;-76
2022/12/03 11:28:14;;;;;;;43.20;17.10;;;;;;;;;;5086937;28;20128;-76
2022/12/03 11:30:49;;;;;;;36.03;15.27;;;;;;;;;;5091381;28;20043;-76
2022/12/03 11:33:34;;;;;;;45.30;17.10;;;;;;;;;;5091806;28;20024;-76
2022/12/03 11:36:03;;;;;;;41.88;15.25;;;;;;;;;;5105510;28;20031;-76
2022/12/03 11:38:39;;;;;;;38.22;14.60;;;;;;;;;;5122096;27;20027;-75
2022/12/03 11:41:29;;;;;;;40.55;13.98;;;;;;;;;;5102392;27;20035;-76
2022/12/03 11:44:00;;;;;;;38.88;14.73;;;;;;;;;;5089239;28;20143;-76
2022/12/03 11:46:35;;;;;;;34.30;14.27;;;;;;;;;;5083738;28;20438;-76
2022/12/03 11:49:02;;;;;;;37.28;14.02;;;;;;;;;;5096736;28;20023;-75
2022/12/03 11:51:28;;;;;;;32.00;12.95;;;;;;;;;;5115448;28;20019;-77
2022/12/03 11:53:56;;;;;;;32.88;12.55;;;;;;;;;;5096846;28;20031;-76
2022/12/03 11:56:29;;;;;;;35.80;13.25;;;;;;;;;;5092205;28;20031;-76
2022/12/03 11:59:00;;;;;;;33.28;13.27;;;;;;;;;;5082555;28;20494;-75
2022/12/03 12:01:39;;;;;;;33.35;12.00;;;;;;;;;;5110435;28;20480;-75
2022/12/03 12:04:07;;;;;;;27.33;11.15;;;;;;;;;;5105671;28;20061;-75
2022/12/03 12:06:43;;;;;;;29.38;11.48;;;;;;;;;;5114135;28;20110;-75
2022/12/03 12:09:09;;;;;;;29.00;11.73;;;;;;;;;;5094997;28;20020;-75
2022/12/03 12:11:39;;;;;;;30.63;12.05;;;;;;;;;;5096192;28;20024;-76
2022/12/03 12:14:06;;;;;;;32.78;11.85;;;;;;;;;;5114076;28;20031;-76
2022/12/03 12:16:35;;;;;;;31.27;12.70;;;;;;;;;;5095800;28;20430;-76
2022/12/03 12:19:20;;;;;;;32.55;13.40;;;;;;;;;;5108834;28;20531;-76
2022/12/03 12:21:47;;;;;;;36.85;14.25;;;;;;;;;;5112305;28;20019;-76
2022/12/03 12:24:35;;;;;;;35.97;13.70;;;;;;;;;;5113997;28;20481;-76
2022/12/03 12:27:02;;;;;;;38.80;14.90;;;;;;;;;;5091363;28;20023;-76
2022/12/03 12:29:28;;;;;;;41.67;15.70;;;;;;;;;;5093685;28;20039;-75
2022/12/03 12:31:59;;;;;;;37.08;14.27;;;;;;;;;;5113184;28;20053;-76
2022/12/03 12:34:25;;;;;;;39.70;15.38;;;;;;;;;;5113593;28;20015;-75
2022/12/03 12:36:54;;;;;;;38.47;14.25;;;;;;;;;;5112743;28;20048;-76
2022/12/03 12:39:20;;;;;;;37.10;14.43;;;;;;;;;;5094653;28;20070;-76
2022/12/03 12:41:49;;;;;;;38.20;13.85;;;;;;;;;;5114001;28;20023;-76
2022/12/03 12:44:17;;;;;;;35.95;13.73;;;;;;;;;;5113804;28;20035;-75
2022/12/03 12:46:46;;;;;;;33.13;13.30;;;;;;;;;;5096516;28;20058;-76
2022/12/03 12:49:12;;;;;;;41.72;14.50;;;;;;;;;;5114982;28;20091;-76
2022/12/03 12:51:45;;;;;;;47.50;14.07;;;;;;;;;;5114583;28;20461;-76
2022/12/03 12:54:13;;;;;;;36.53;14.10;;;;;;;;;;5114016;28;20024;-76
2022/12/03 12:56:41;;;;;;;40.42;14.52;;;;;;;;;;5100373;27;20093;-76
2022/12/03 12:59:15;;;;;;;35.90;13.77;;;;;;;;;;5107999;28;20026;-77
2022/12/03 13:01:41;;;;;;;39.45;14.63;;;;;;;;;;5114526;27;20051;-76
2022/12/03 13:04:15;;;;;;;46.17;14.98;;;;;;;;;;5114483;28;20073;-76
2022/12/03 13:06:41;;;;;;;48.20;14.77;;;;;;;;;;5114540;28;20026;-76
2022/12/03 13:09:24;;;;;;;42.05;14.85;;;;;;;;;;5094093;28;20062;-76
2022/12/03 13:11:56;;;;;;;38.08;14.70;;;;;;;;;;5094185;28;20027;-75
2022/12/03 13:14:23;;;;;;;40.38;15.48;;;;;;;;;;5075919;28;20032;-76
2022/12/03 13:16:50;;;;;;;45.80;15.32;;;;;;;;;;5093740;28;20485;-76
2022/12/03 13:19:16;;;;;;;41.22;15.30;;;;;;;;;;5094091;28;20020;-76
2022/12/03 13:21:43;;;;;;;46.03;15.68;;;;;;;;;;5114292;28;20366;-76
2022/12/03 13:24:28;;;;;;;45.88;16.25;;;;;;;;;;5096000;28;20442;-76
2022/12/03 13:26:54;;;;;;;46.78;16.90;;;;;;;;;;5077207;28;20050;-76
2022/12/03 13:29:24;;;;;;;53.20;16.73;;;;;;;;;;5113832;28;20024;-76
2022/12/03 13:31:52;;;;;;;54.60;16.95;;;;;;;;;;5091951;28;20080;-76
2022/12/03 13:34:26;;;;;;;51.25;17.67;;;;;;;;;;5113890;28;20019;-76
2022/12/03 13:36:52;;;;;;;50.33;18.40;;;;;;;;;;5113812;28;20032;-76
2022/12/03 13:39:21;;;;;;;47.60;18.90;;;;;;;;;;5113996;28;20133;-76
2022/12/03 13:44:32;;;;;;;59.78;19.58;;;;;;;;;;5098882;28;20092;-76
2022/12/03 13:47:02;;;;;;;66.55;22.10;;;;;;;;;;5094451;28;20093;-78
2022/12/03 13:49:28;;;;;;;69.15;21.88;;;;;;;;;;5113485;28;20035;-76
2022/12/03 13:51:54;;;;;;;68.22;22.27;;;;;;;;;;5113308;28;20031;-75
2022/12/03 13:54:22;;;;;;;63.35;20.55;;;;;;;;;;5094341;28;20027;-76
2022/12/03 13:56:49;;;;;;;74.63;23.25;;;;;;;;;;5106366;28;20016;-76
2022/12/03 13:59:15;;;;;;;68.75;21.67;;;;;;;;;;5094466;28;20107;-77
2022/12/03 14:01:42;;;;;;;72.40;22.90;;;;;;;;;;5091934;28;20024;-77
2022/12/03 14:04:08;;;;;;;67.70;22.05;;;;;;;;;;5093300;28;20024;-78
2022/12/03 14:06:34;;;;;;;78.93;27.75;;;;;;;;;;5074288;28;20051;-76
2022/12/03 14:09:00;;;;;;;74.25;24.15;;;;;;;;;;5093026;28;20115;-77
2022/12/03 14:14:11;;;;;;;64.28;21.77;;;;;;;;;;5093772;28;20035;-76
2022/12/03 14:16:52;;;;;;;70.38;22.38;;;;;;;;;;5054861;28;20099;-76
2022/12/03 14:19:18;;;;;;;56.72;20.17;;;;;;;;;;5092979;28;20159;-76
2022/12/03 14:21:44;;;;;;;64.35;19.77;;;;;;;;;;5074669;28;20032;-77
2022/12/03 14:24:10;;;;;;;63.45;20.45;;;;;;;;;;5096502;28;20039;-76
2022/12/03 14:26:36;;;;;;;61.08;20.60;;;;;;;;;;5092650;28;20020;-76
2022/12/03 14:29:02;;;;;;;57.88;19.23;;;;;;;;;;5092399;28;20023;-76
2022/12/03 14:31:29;;;;;;;58.38;20.80;;;;;;;;;;5095047;28;20097;-76
2022/12/03 14:33:55;;;;;;;61.42;20.65;;;;;;;;;;5095105;28;20110;-76
2022/12/03 14:36:21;;;;;;;57.35;20.08;;;;;;;;;;5094714;28;20066;-76
2022/12/03 14:38:47;;;;;;;58.40;20.35;;;;;;;;;;5092761;28;20023;-76
2022/12/03 14:43:59;;;;;;;53.83;19.30;;;;;;;;;;5092925;28;20528;-76
2022/12/03 14:46:25;;;;;;;53.20;18.17;;;;;;;;;;5104315;28;20243;-78
2022/12/03 14:48:51;;;;;;;53.63;18.27;;;;;;;;;;5088519;28;20590;-78
2022/12/03 14:51:17;;;;;;;50.60;16.77;;;;;;;;;;5100377;28;20035;-78